Terminal Aerodrome Forecast
Issued by NWS Pendleton, OR

Home | Current Version | Previous Version | Text Only | Print | Product List | Glossary On
Versions: 1 2 3 4 5 6 7 8 9 10 11 12 13 14 15 16 17 18 19 20 21 22 23 24 25 26
000
FTUS46 KPDT 230520
TAFPDT
TAF
KPDT 230520Z 2306/2406 27010KT P6SM SCT050
     FM231100 23005KT 5SM BR SCT001 SCT050
     FM231600 25007KT P6SM SCT050
     FM232200 08006KT P6SM BKN200=

USA.gov is the U.S. government's official web portal to all federal, state and local government web resources and services.